sensor_id;sensor_type;location;lat;lon;timestamp;P1;durP1;ratioP1;P2;durP2;ratioP2
38479;SDS011;62333;51.980;5.934;2023-04-24T00:01:13;4.28;;;2.80;;
38479;SDS011;62333;51.980;5.934;2023-04-24T00:03:40;5.43;;;4.47;;
38479;SDS011;62333;51.980;5.934;2023-04-24T00:06:06;4.82;;;3.50;;
38479;SDS011;62333;51.980;5.934;2023-04-24T00:08:33;4.13;;;2.75;;
38479;SDS011;62333;51.980;5.934;2023-04-24T00:10:59;6.15;;;4.78;;
38479;SDS011;62333;51.980;5.934;2023-04-24T00:13:25;5.80;;;2.83;;
38479;SDS011;62333;51.980;5.934;2023-04-24T00:15:53;6.47;;;4.60;;
38479;SDS011;62333;51.980;5.934;2023-04-24T00:18:19;5.93;;;4.70;;
38479;SDS011;62333;51.980;5.934;2023-04-24T00:20:45;7.00;;;4.25;;
38479;SDS011;62333;51.980;5.934;2023-04-24T00:23:11;4.25;;;3.55;;
38479;SDS011;62333;51.980;5.934;2023-04-24T00:25:37;3.63;;;3.28;;
38479;SDS011;62333;51.980;5.934;2023-04-24T00:28:03;4.53;;;2.33;;
38479;SDS011;62333;51.980;5.934;2023-04-24T00:30:29;2.65;;;1.30;;
38479;SDS011;62333;51.980;5.934;2023-04-24T00:32:54;2.15;;;1.05;;
38479;SDS011;62333;51.980;5.934;2023-04-24T00:35:20;2.90;;;0.98;;
38479;SDS011;62333;51.980;5.934;2023-04-24T00:37:46;2.05;;;0.90;;
38479;SDS011;62333;51.980;5.934;2023-04-24T00:40:12;1.85;;;0.90;;
38479;SDS011;62333;51.980;5.934;2023-04-24T00:42:38;1.95;;;1.13;;
38479;SDS011;62333;51.980;5.934;2023-04-24T00:45:05;1.10;;;0.60;;
38479;SDS011;62333;51.980;5.934;2023-04-24T00:47:32;1.75;;;0.68;;
38479;SDS011;62333;51.980;5.934;2023-04-24T00:49:58;1.98;;;0.60;;
38479;SDS011;62333;51.980;5.934;2023-04-24T00:52:29;1.25;;;0.40;;
38479;SDS011;62333;51.980;5.934;2023-04-24T00:54:57;2.85;;;0.98;;
38479;SDS011;62333;51.980;5.934;2023-04-24T00:57:23;0.90;;;0.50;;
38479;SDS011;62333;51.980;5.934;2023-04-24T00:59:50;1.27;;;0.63;;
38479;SDS011;62333;51.980;5.934;2023-04-24T01:02:16;2.38;;;1.30;;
38479;SDS011;62333;51.980;5.934;2023-04-24T01:04:42;1.67;;;0.70;;
38479;SDS011;62333;51.980;5.934;2023-04-24T01:07:08;2.47;;;1.25;;
38479;SDS011;62333;51.980;5.934;2023-04-24T01:09:37;3.90;;;2.83;;
38479;SDS011;62333;51.980;5.934;2023-04-24T01:12:04;6.35;;;4.15;;
38479;SDS011;62333;51.980;5.934;2023-04-24T01:14:30;5.55;;;4.25;;
38479;SDS011;62333;51.980;5.934;2023-04-24T01:16:56;6.53;;;5.55;;
38479;SDS011;62333;51.980;5.934;2023-04-24T01:19:22;12.32;;;10.65;;
38479;SDS011;62333;51.980;5.934;2023-04-24T01:21:49;10.18;;;8.15;;
38479;SDS011;62333;51.980;5.934;2023-04-24T01:24:18;10.40;;;8.93;;
38479;SDS011;62333;51.980;5.934;2023-04-24T01:26:44;15.57;;;11.82;;
38479;SDS011;62333;51.980;5.934;2023-04-24T01:29:11;14.70;;;10.73;;
38479;SDS011;62333;51.980;5.934;2023-04-24T01:31:37;14.25;;;11.05;;
38479;SDS011;62333;51.980;5.934;2023-04-24T01:34:04;17.80;;;12.90;;
38479;SDS011;62333;51.980;5.934;2023-04-24T01:36:31;13.57;;;9.68;;
38479;SDS011;62333;51.980;5.934;2023-04-24T01:38:58;11.38;;;8.75;;
38479;SDS011;62333;51.980;5.934;2023-04-24T01:41:23;19.85;;;13.85;;
38479;SDS011;62333;51.980;5.934;2023-04-24T01:43:50;16.92;;;12.80;;
38479;SDS011;62333;51.980;5.934;2023-04-24T01:46:16;15.50;;;11.57;;
38479;SDS011;62333;51.980;5.934;2023-04-24T01:48:41;13.13;;;10.70;;
38479;SDS011;62333;51.980;5.934;2023-04-24T01:51:07;13.85;;;9.93;;
38479;SDS011;62333;51.980;5.934;2023-04-24T01:53:33;12.07;;;10.15;;
38479;SDS011;62333;51.980;5.934;2023-04-24T01:55:59;9.73;;;7.85;;
38479;SDS011;62333;51.980;5.934;2023-04-24T01:58:25;11.05;;;8.80;;
38479;SDS011;62333;51.980;5.934;2023-04-24T02:00:51;9.30;;;7.07;;
38479;SDS011;62333;51.980;5.934;2023-04-24T02:03:17;8.88;;;7.13;;
38479;SDS011;62333;51.980;5.934;2023-04-24T02:05:45;7.15;;;5.95;;
38479;SDS011;62333;51.980;5.934;2023-04-24T02:08:11;7.78;;;6.18;;
38479;SDS011;62333;51.980;5.934;2023-04-24T02:10:37;7.90;;;5.95;;
38479;SDS011;62333;51.980;5.934;2023-04-24T02:13:02;8.50;;;6.95;;
38479;SDS011;62333;51.980;5.934;2023-04-24T02:15:29;11.43;;;8.05;;
38479;SDS011;62333;51.980;5.934;2023-04-24T02:17:55;10.82;;;7.30;;
38479;SDS011;62333;51.980;5.934;2023-04-24T02:20:20;14.32;;;9.52;;
38479;SDS011;62333;51.980;5.934;2023-04-24T02:22:46;14.30;;;12.65;;
38479;SDS011;62333;51.980;5.934;2023-04-24T02:25:13;12.80;;;10.52;;
38479;SDS011;62333;51.980;5.934;2023-04-24T02:27:38;20.13;;;13.38;;
38479;SDS011;62333;51.980;5.934;2023-04-24T02:30:04;16.13;;;12.98;;
38479;SDS011;62333;51.980;5.934;2023-04-24T02:32:31;14.40;;;12.85;;
38479;SDS011;62333;51.980;5.934;2023-04-24T02:34:56;15.15;;;12.07;;
38479;SDS011;62333;51.980;5.934;2023-04-24T02:37:22;16.65;;;14.35;;
38479;SDS011;62333;51.980;5.934;2023-04-24T02:39:47;17.55;;;12.25;;
38479;SDS011;62333;51.980;5.934;2023-04-24T02:42:13;20.30;;;15.18;;
38479;SDS011;62333;51.980;5.934;2023-04-24T02:44:39;19.35;;;15.38;;
38479;SDS011;62333;51.980;5.934;2023-04-24T02:47:05;16.40;;;13.82;;
38479;SDS011;62333;51.980;5.934;2023-04-24T02:49:30;18.45;;;13.93;;
38479;SDS011;62333;51.980;5.934;2023-04-24T02:51:56;18.83;;;15.60;;
38479;SDS011;62333;51.980;5.934;2023-04-24T02:54:22;16.45;;;13.63;;
38479;SDS011;62333;51.980;5.934;2023-04-24T02:56:47;17.92;;;13.25;;
38479;SDS011;62333;51.980;5.934;2023-04-24T02:59:13;13.05;;;10.98;;
38479;SDS011;62333;51.980;5.934;2023-04-24T03:01:38;16.48;;;14.07;;
38479;SDS011;62333;51.980;5.934;2023-04-24T03:04:04;13.65;;;11.90;;
38479;SDS011;62333;51.980;5.934;2023-04-24T03:06:30;14.88;;;12.10;;
38479;SDS011;62333;51.980;5.934;2023-04-24T03:08:57;15.25;;;12.18;;
38479;SDS011;62333;51.980;5.934;2023-04-24T03:11:23;18.40;;;11.52;;
38479;SDS011;62333;51.980;5.934;2023-04-24T03:13:49;15.38;;;12.77;;
38479;SDS011;62333;51.980;5.934;2023-04-24T03:16:14;14.15;;;11.75;;
38479;SDS011;62333;51.980;5.934;2023-04-24T03:18:40;15.70;;;10.68;;
38479;SDS011;62333;51.980;5.934;2023-04-24T03:21:06;14.90;;;12.05;;
38479;SDS011;62333;51.980;5.934;2023-04-24T03:23:31;16.95;;;12.50;;
38479;SDS011;62333;51.980;5.934;2023-04-24T03:25:57;13.57;;;11.63;;
38479;SDS011;62333;51.980;5.934;2023-04-24T03:28:22;10.32;;;8.82;;
38479;SDS011;62333;51.980;5.934;2023-04-24T03:30:50;15.07;;;13.07;;
38479;SDS011;62333;51.980;5.934;2023-04-24T03:33:15;15.82;;;11.88;;
38479;SDS011;62333;51.980;5.934;2023-04-24T03:35:41;14.15;;;11.65;;
38479;SDS011;62333;51.980;5.934;2023-04-24T03:38:06;12.07;;;10.30;;
38479;SDS011;62333;51.980;5.934;2023-04-24T03:40:32;14.55;;;11.63;;
38479;SDS011;62333;51.980;5.934;2023-04-24T03:42:58;16.73;;;14.20;;
38479;SDS011;62333;51.980;5.934;2023-04-24T03:45:24;17.13;;;14.07;;
38479;SDS011;62333;51.980;5.934;2023-04-24T03:47:49;17.52;;;15.00;;
38479;SDS011;62333;51.980;5.934;2023-04-24T03:50:15;26.40;;;19.73;;
38479;SDS011;62333;51.980;5.934;2023-04-24T03:52:41;26.17;;;20.40;;
38479;SDS011;62333;51.980;5.934;2023-04-24T03:55:06;28.55;;;20.02;;
38479;SDS011;62333;51.980;5.934;2023-04-24T03:57:32;25.02;;;19.42;;
38479;SDS011;62333;51.980;5.934;2023-04-24T03:59:58;26.17;;;20.08;;
38479;SDS011;62333;51.980;5.934;2023-04-24T04:02:24;24.00;;;20.02;;
38479;SDS011;62333;51.980;5.934;2023-04-24T04:04:49;24.50;;;20.98;;
38479;SDS011;62333;51.980;5.934;2023-04-24T04:07:15;27.58;;;22.40;;
38479;SDS011;62333;51.980;5.934;2023-04-24T04:09:41;29.45;;;21.25;;
38479;SDS011;62333;51.980;5.934;2023-04-24T04:12:07;24.60;;;18.38;;
38479;SDS011;62333;51.980;5.934;2023-04-24T04:14:32;24.17;;;20.48;;
38479;SDS011;62333;51.980;5.934;2023-04-24T04:16:58;26.90;;;21.63;;
38479;SDS011;62333;51.980;5.934;2023-04-24T04:19:23;26.17;;;20.42;;
38479;SDS011;62333;51.980;5.934;2023-04-24T04:21:49;26.75;;;19.60;;
38479;SDS011;62333;51.980;5.934;2023-04-24T04:24:20;21.73;;;16.73;;
38479;SDS011;62333;51.980;5.934;2023-04-24T04:26:47;21.73;;;17.15;;
38479;SDS011;62333;51.980;5.934;2023-04-24T04:29:16;21.02;;;15.52;;
38479;SDS011;62333;51.980;5.934;2023-04-24T04:31:43;22.98;;;16.52;;
38479;SDS011;62333;51.980;5.934;2023-04-24T04:34:09;23.27;;;19.35;;
38479;SDS011;62333;51.980;5.934;2023-04-24T04:36:36;19.52;;;15.98;;
38479;SDS011;62333;51.980;5.934;2023-04-24T04:39:05;22.50;;;18.67;;
38479;SDS011;62333;51.980;5.934;2023-04-24T04:41:31;20.70;;;16.73;;
38479;SDS011;62333;51.980;5.934;2023-04-24T04:43:59;19.65;;;17.33;;
38479;SDS011;62333;51.980;5.934;2023-04-24T04:46:26;24.27;;;18.58;;
38479;SDS011;62333;51.980;5.934;2023-04-24T04:48:52;21.20;;;16.80;;
38479;SDS011;62333;51.980;5.934;2023-04-24T04:51:18;19.52;;;15.60;;
38479;SDS011;62333;51.980;5.934;2023-04-24T04:53:44;25.42;;;18.92;;
38479;SDS011;62333;51.980;5.934;2023-04-24T04:56:10;21.88;;;17.90;;
38479;SDS011;62333;51.980;5.934;2023-04-24T04:58:36;22.35;;;17.55;;
38479;SDS011;62333;51.980;5.934;2023-04-24T05:01:01;20.23;;;16.17;;
38479;SDS011;62333;51.980;5.934;2023-04-24T05:03:27;22.05;;;16.67;;
38479;SDS011;62333;51.980;5.934;2023-04-24T05:05:53;27.42;;;21.40;;
38479;SDS011;62333;51.980;5.934;2023-04-24T05:08:18;20.15;;;15.85;;
38479;SDS011;62333;51.980;5.934;2023-04-24T05:10:44;22.27;;;16.45;;
38479;SDS011;62333;51.980;5.934;2023-04-24T05:13:10;17.95;;;13.77;;
38479;SDS011;62333;51.980;5.934;2023-04-24T05:15:36;13.73;;;12.02;;
38479;SDS011;62333;51.980;5.934;2023-04-24T05:18:01;15.45;;;13.23;;
38479;SDS011;62333;51.980;5.934;2023-04-24T05:20:28;17.17;;;13.93;;
38479;SDS011;62333;51.980;5.934;2023-04-24T05:22:53;27.80;;;18.77;;
38479;SDS011;62333;51.980;5.934;2023-04-24T05:25:19;26.10;;;16.38;;
38479;SDS011;62333;51.980;5.934;2023-04-24T05:27:45;18.20;;;15.30;;
38479;SDS011;62333;51.980;5.934;2023-04-24T05:30:11;17.73;;;12.95;;
38479;SDS011;62333;51.980;5.934;2023-04-24T05:32:37;14.68;;;11.40;;
38479;SDS011;62333;51.980;5.934;2023-04-24T05:35:03;18.52;;;14.18;;
38479;SDS011;62333;51.980;5.934;2023-04-24T05:37:29;19.00;;;15.23;;
38479;SDS011;62333;51.980;5.934;2023-04-24T05:39:55;13.93;;;10.00;;
38479;SDS011;62333;51.980;5.934;2023-04-24T05:42:20;14.70;;;12.75;;
38479;SDS011;62333;51.980;5.934;2023-04-24T05:44:46;14.95;;;11.13;;
38479;SDS011;62333;51.980;5.934;2023-04-24T05:47:11;11.88;;;9.00;;
38479;SDS011;62333;51.980;5.934;2023-04-24T05:49:37;13.23;;;9.57;;
38479;SDS011;62333;51.980;5.934;2023-04-24T05:52:03;10.15;;;8.25;;
38479;SDS011;62333;51.980;5.934;2023-04-24T05:54:30;11.77;;;8.50;;
38479;SDS011;62333;51.980;5.934;2023-04-24T05:56:56;11.90;;;9.15;;
38479;SDS011;62333;51.980;5.934;2023-04-24T05:59:21;10.32;;;7.88;;
38479;SDS011;62333;51.980;5.934;2023-04-24T06:01:47;11.45;;;7.90;;
38479;SDS011;62333;51.980;5.934;2023-04-24T06:04:12;12.23;;;9.38;;
38479;SDS011;62333;51.980;5.934;2023-04-24T06:06:38;9.73;;;7.20;;
38479;SDS011;62333;51.980;5.934;2023-04-24T06:09:05;9.30;;;5.97;;
38479;SDS011;62333;51.980;5.934;2023-04-24T06:11:30;9.25;;;6.28;;
38479;SDS011;62333;51.980;5.934;2023-04-24T06:13:56;8.52;;;6.38;;
38479;SDS011;62333;51.980;5.934;2023-04-24T06:16:22;8.75;;;6.30;;
38479;SDS011;62333;51.980;5.934;2023-04-24T06:18:47;8.50;;;6.40;;
38479;SDS011;62333;51.980;5.934;2023-04-24T06:21:13;7.30;;;5.40;;
38479;SDS011;62333;51.980;5.934;2023-04-24T06:23:42;10.27;;;6.53;;
38479;SDS011;62333;51.980;5.934;2023-04-24T06:26:08;8.02;;;4.72;;
38479;SDS011;62333;51.980;5.934;2023-04-24T06:28:34;7.63;;;5.57;;
38479;SDS011;62333;51.980;5.934;2023-04-24T06:30:59;8.18;;;4.38;;
38479;SDS011;62333;51.980;5.934;2023-04-24T06:33:25;5.90;;;4.47;;
38479;SDS011;62333;51.980;5.934;2023-04-24T06:35:51;8.07;;;5.35;;
38479;SDS011;62333;51.980;5.934;2023-04-24T06:38:16;8.00;;;5.20;;
38479;SDS011;62333;51.980;5.934;2023-04-24T06:40:42;7.90;;;4.65;;
38479;SDS011;62333;51.980;5.934;2023-04-24T06:43:08;5.80;;;4.35;;
38479;SDS011;62333;51.980;5.934;2023-04-24T06:45:34;7.85;;;5.13;;
38479;SDS011;62333;51.980;5.934;2023-04-24T06:48:00;7.90;;;5.05;;
38479;SDS011;62333;51.980;5.934;2023-04-24T06:50:26;6.43;;;4.47;;
38479;SDS011;62333;51.980;5.934;2023-04-24T06:52:51;6.63;;;4.05;;
38479;SDS011;62333;51.980;5.934;2023-04-24T06:55:17;6.07;;;2.97;;
38479;SDS011;62333;51.980;5.934;2023-04-24T06:57:43;5.68;;;3.92;;
38479;SDS011;62333;51.980;5.934;2023-04-24T07:00:09;5.60;;;3.08;;
38479;SDS011;62333;51.980;5.934;2023-04-24T07:02:36;5.28;;;2.95;;
38479;SDS011;62333;51.980;5.934;2023-04-24T07:05:02;4.32;;;2.67;;
38479;SDS011;62333;51.980;5.934;2023-04-24T07:07:28;3.90;;;2.47;;
38479;SDS011;62333;51.980;5.934;2023-04-24T07:09:54;5.40;;;2.83;;
38479;SDS011;62333;51.980;5.934;2023-04-24T07:12:21;3.90;;;1.90;;
38479;SDS011;62333;51.980;5.934;2023-04-24T07:14:47;4.40;;;1.65;;
38479;SDS011;62333;51.980;5.934;2023-04-24T07:17:13;3.40;;;1.75;;
38479;SDS011;62333;51.980;5.934;2023-04-24T07:19:39;2.85;;;1.30;;
38479;SDS011;62333;51.980;5.934;2023-04-24T07:22:05;2.50;;;0.88;;
38479;SDS011;62333;51.980;5.934;2023-04-24T07:24:31;2.40;;;1.33;;
38479;SDS011;62333;51.980;5.934;2023-04-24T07:26:59;3.03;;;0.70;;
38479;SDS011;62333;51.980;5.934;2023-04-24T07:29:28;1.98;;;0.60;;
38479;SDS011;62333;51.980;5.934;2023-04-24T07:31:54;1.77;;;0.75;;
38479;SDS011;62333;51.980;5.934;2023-04-24T07:34:19;3.40;;;0.65;;
38479;SDS011;62333;51.980;5.934;2023-04-24T07:36:45;1.50;;;0.60;;
38479;SDS011;62333;51.980;5.934;2023-04-24T07:39:11;1.02;;;0.40;;
38479;SDS011;62333;51.980;5.934;2023-04-24T07:41:37;1.30;;;0.40;;
38479;SDS011;62333;51.980;5.934;2023-04-24T07:44:03;1.30;;;0.30;;
38479;SDS011;62333;51.980;5.934;2023-04-24T07:46:29;1.40;;;0.30;;
38479;SDS011;62333;51.980;5.934;2023-04-24T07:48:55;2.13;;;0.88;;
38479;SDS011;62333;51.980;5.934;2023-04-24T07:51:21;1.40;;;0.77;;
38479;SDS011;62333;51.980;5.934;2023-04-24T07:53:47;2.80;;;1.17;;
38479;SDS011;62333;51.980;5.934;2023-04-24T07:56:12;2.80;;;1.38;;
38479;SDS011;62333;51.980;5.934;2023-04-24T07:58:38;5.07;;;1.63;;
38479;SDS011;62333;51.980;5.934;2023-04-24T08:01:03;2.30;;;1.25;;
38479;SDS011;62333;51.980;5.934;2023-04-24T08:03:29;2.78;;;1.50;;
38479;SDS011;62333;51.980;5.934;2023-04-24T08:05:55;5.07;;;1.98;;
38479;SDS011;62333;51.980;5.934;2023-04-24T08:08:21;4.88;;;1.88;;
38479;SDS011;62333;51.980;5.934;2023-04-24T08:10:47;4.85;;;2.45;;
38479;SDS011;62333;51.980;5.934;2023-04-24T08:13:13;6.63;;;3.03;;
38479;SDS011;62333;51.980;5.934;2023-04-24T08:15:39;4.47;;;1.98;;
38479;SDS011;62333;51.980;5.934;2023-04-24T08:18:05;4.22;;;2.22;;
38479;SDS011;62333;51.980;5.934;2023-04-24T08:20:30;7.03;;;3.05;;
38479;SDS011;62333;51.980;5.934;2023-04-24T08:22:56;3.78;;;1.88;;
38479;SDS011;62333;51.980;5.934;2023-04-24T08:25:22;3.17;;;1.80;;
38479;SDS011;62333;51.980;5.934;2023-04-24T08:27:50;7.15;;;2.80;;
38479;SDS011;62333;51.980;5.934;2023-04-24T08:30:17;7.32;;;3.17;;
38479;SDS011;62333;51.980;5.934;2023-04-24T08:32:43;4.47;;;3.00;;
38479;SDS011;62333;51.980;5.934;2023-04-24T08:35:09;6.10;;;2.72;;
38479;SDS011;62333;51.980;5.934;2023-04-24T08:37:35;4.90;;;2.70;;
38479;SDS011;62333;51.980;5.934;2023-04-24T08:40:02;5.53;;;3.33;;
38479;SDS011;62333;51.980;5.934;2023-04-24T08:42:44;5.93;;;3.17;;
38479;SDS011;62333;51.980;5.934;2023-04-24T08:45:11;5.88;;;2.53;;
38479;SDS011;62333;51.980;5.934;2023-04-24T08:47:38;4.60;;;2.85;;
38479;SDS011;62333;51.980;5.934;2023-04-24T08:50:05;7.13;;;2.78;;
38479;SDS011;62333;51.980;5.934;2023-04-24T08:52:32;4.35;;;2.60;;
38479;SDS011;62333;51.980;5.934;2023-04-24T08:55:02;5.88;;;2.75;;
38479;SDS011;62333;51.980;5.934;2023-04-24T08:57:28;5.53;;;3.17;;
38479;SDS011;62333;51.980;5.934;2023-04-24T08:59:56;4.75;;;3.05;;
38479;SDS011;62333;51.980;5.934;2023-04-24T09:02:23;5.80;;;3.00;;
38479;SDS011;62333;51.980;5.934;2023-04-24T09:04:49;5.75;;;2.95;;
38479;SDS011;62333;51.980;5.934;2023-04-24T09:07:16;5.85;;;3.20;;
38479;SDS011;62333;51.980;5.934;2023-04-24T09:09:43;5.35;;;2.58;;
38479;SDS011;62333;51.980;5.934;2023-04-24T09:12:09;7.22;;;3.00;;
38479;SDS011;62333;51.980;5.934;2023-04-24T09:14:35;5.15;;;1.50;;
38479;SDS011;62333;51.980;5.934;2023-04-24T09:17:04;3.80;;;1.42;;
38479;SDS011;62333;51.980;5.934;2023-04-24T09:19:31;5.72;;;1.75;;
38479;SDS011;62333;51.980;5.934;2023-04-24T09:21:56;6.40;;;2.40;;
38479;SDS011;62333;51.980;5.934;2023-04-24T09:24:22;7.13;;;1.73;;
38479;SDS011;62333;51.980;5.934;2023-04-24T09:26:48;7.00;;;1.77;;
38479;SDS011;62333;51.980;5.934;2023-04-24T09:29:22;5.93;;;2.70;;
38479;SDS011;62333;51.980;5.934;2023-04-24T09:31:48;6.65;;;2.15;;
38479;SDS011;62333;51.980;5.934;2023-04-24T09:34:13;7.40;;;2.38;;
38479;SDS011;62333;51.980;5.934;2023-04-24T09:36:40;4.90;;;1.58;;
38479;SDS011;62333;51.980;5.934;2023-04-24T09:39:11;7.80;;;1.38;;
38479;SDS011;62333;51.980;5.934;2023-04-24T09:41:47;5.68;;;1.63;;
38479;SDS011;62333;51.980;5.934;2023-04-24T09:44:15;7.50;;;1.52;;
38479;SDS011;62333;51.980;5.934;2023-04-24T09:46:48;9.02;;;2.38;;
38479;SDS011;62333;51.980;5.934;2023-04-24T09:49:25;9.15;;;1.75;;
38479;SDS011;62333;51.980;5.934;2023-04-24T09:51:52;9.30;;;2.03;;
38479;SDS011;62333;51.980;5.934;2023-04-24T09:54:28;5.63;;;1.10;;
38479;SDS011;62333;51.980;5.934;2023-04-24T09:56:54;4.57;;;1.10;;
38479;SDS011;62333;51.980;5.934;2023-04-24T09:59:21;4.60;;;1.27;;
38479;SDS011;62333;51.980;5.934;2023-04-24T10:01:47;5.88;;;1.58;;
38479;SDS011;62333;51.980;5.934;2023-04-24T10:04:27;7.90;;;1.88;;
38479;SDS011;62333;51.980;5.934;2023-04-24T10:06:55;6.00;;;1.63;;
38479;SDS011;62333;51.980;5.934;2023-04-24T10:09:22;4.80;;;1.63;;
38479;SDS011;62333;51.980;5.934;2023-04-24T10:11:50;5.97;;;2.03;;
38479;SDS011;62333;51.980;5.934;2023-04-24T10:14:17;7.10;;;2.00;;
38479;SDS011;62333;51.980;5.934;2023-04-24T10:16:45;10.52;;;2.92;;
38479;SDS011;62333;51.980;5.934;2023-04-24T10:19:14;6.00;;;1.60;;
38479;SDS011;62333;51.980;5.934;2023-04-24T10:21:42;12.02;;;1.90;;
38479;SDS011;62333;51.980;5.934;2023-04-24T10:24:14;6.15;;;1.10;;
38479;SDS011;62333;51.980;5.934;2023-04-24T10:26:41;7.70;;;2.03;;
38479;SDS011;62333;51.980;5.934;2023-04-24T10:29:08;6.32;;;1.05;;
38479;SDS011;62333;51.980;5.934;2023-04-24T10:31:37;4.85;;;1.30;;
38479;SDS011;62333;51.980;5.934;2023-04-24T10:34:06;9.52;;;1.77;;
38479;SDS011;62333;51.980;5.934;2023-04-24T10:36:33;9.18;;;1.08;;
38479;SDS011;62333;51.980;5.934;2023-04-24T10:39:02;5.45;;;1.10;;
38479;SDS011;62333;51.980;5.934;2023-04-24T10:41:31;5.28;;;1.42;;
38479;SDS011;62333;51.980;5.934;2023-04-24T10:44:10;4.07;;;1.38;;
38479;SDS011;62333;51.980;5.934;2023-04-24T10:46:37;8.63;;;1.35;;
38479;SDS011;62333;51.980;5.934;2023-04-24T10:49:07;4.90;;;0.80;;
38479;SDS011;62333;51.980;5.934;2023-04-24T10:51:44;4.85;;;0.77;;
38479;SDS011;62333;51.980;5.934;2023-04-24T10:54:21;1.83;;;0.50;;
38479;SDS011;62333;51.980;5.934;2023-04-24T10:59:45;5.60;;;1.52;;
38479;SDS011;62333;51.980;5.934;2023-04-24T11:02:15;3.53;;;0.60;;
38479;SDS011;62333;51.980;5.934;2023-04-24T11:04:41;4.15;;;0.80;;
38479;SDS011;62333;51.980;5.934;2023-04-24T11:07:08;3.35;;;1.10;;
38479;SDS011;62333;51.980;5.934;2023-04-24T11:09:35;8.95;;;1.90;;
38479;SDS011;62333;51.980;5.934;2023-04-24T11:12:10;5.18;;;0.70;;
38479;SDS011;62333;51.980;5.934;2023-04-24T11:20:22;2.83;;;0.45;;
38479;SDS011;62333;51.980;5.934;2023-04-24T11:22:50;2.10;;;0.30;;
38479;SDS011;62333;51.980;5.934;2023-04-24T11:25:19;2.20;;;0.40;;
38479;SDS011;62333;51.980;5.934;2023-04-24T11:27:47;4.57;;;0.50;;
38479;SDS011;62333;51.980;5.934;2023-04-24T11:30:18;2.10;;;0.60;;
38479;SDS011;62333;51.980;5.934;2023-04-24T11:32:49;4.22;;;1.17;;
38479;SDS011;62333;51.980;5.934;2023-04-24T11:35:20;4.82;;;0.47;;
38479;SDS011;62333;51.980;5.934;2023-04-24T11:37:50;3.83;;;0.75;;
38479;SDS011;62333;51.980;5.934;2023-04-24T11:40:20;3.22;;;0.47;;
38479;SDS011;62333;51.980;5.934;2023-04-24T11:42:48;2.47;;;0.22;;
38479;SDS011;62333;51.980;5.934;2023-04-24T11:45:16;3.47;;;0.70;;
38479;SDS011;62333;51.980;5.934;2023-04-24T11:47:44;1.52;;;0.85;;
38479;SDS011;62333;51.980;5.934;2023-04-24T11:50:11;2.30;;;0.25;;
38479;SDS011;62333;51.980;5.934;2023-04-24T11:52:39;2.58;;;0.45;;
38479;SDS011;62333;51.980;5.934;2023-04-24T11:57:46;1.88;;;1.08;;
38479;SDS011;62333;51.980;5.934;2023-04-24T12:00:17;2.30;;;0.40;;
38479;SDS011;62333;51.980;5.934;2023-04-24T12:02:45;2.05;;;0.75;;
38479;SDS011;62333;51.980;5.934;2023-04-24T12:05:25;1.33;;;0.35;;
38479;SDS011;62333;51.980;5.934;2023-04-24T12:07:52;4.25;;;0.45;;
38479;SDS011;62333;51.980;5.934;2023-04-24T12:10:25;4.03;;;0.32;;
38479;SDS011;62333;51.980;5.934;2023-04-24T12:12:53;3.92;;;1.23;;
38479;SDS011;62333;51.980;5.934;2023-04-24T12:15:20;1.40;;;0.30;;
38479;SDS011;62333;51.980;5.934;2023-04-24T12:17:52;1.95;;;0.30;;
38479;SDS011;62333;51.980;5.934;2023-04-24T12:20:23;3.00;;;0.82;;
38479;SDS011;62333;51.980;5.934;2023-04-24T12:22:53;3.45;;;0.47;;
38479;SDS011;62333;51.980;5.934;2023-04-24T12:25:20;2.85;;;0.73;;
38479;SDS011;62333;51.980;5.934;2023-04-24T12:27:52;4.05;;;0.63;;
38479;SDS011;62333;51.980;5.934;2023-04-24T12:30:20;3.72;;;1.02;;
38479;SDS011;62333;51.980;5.934;2023-04-24T12:32:49;4.28;;;0.73;;
38479;SDS011;62333;51.980;5.934;2023-04-24T12:35:19;8.48;;;0.85;;
38479;SDS011;62333;51.980;5.934;2023-04-24T12:37:46;2.53;;;0.43;;
38479;SDS011;62333;51.980;5.934;2023-04-24T12:40:12;1.85;;;0.63;;
38479;SDS011;62333;51.980;5.934;2023-04-24T12:42:42;2.88;;;0.82;;
38479;SDS011;62333;51.980;5.934;2023-04-24T12:45:16;6.07;;;1.02;;
38479;SDS011;62333;51.980;5.934;2023-04-24T12:47:44;2.28;;;0.55;;
38479;SDS011;62333;51.980;5.934;2023-04-24T12:50:11;1.42;;;0.50;;
38479;SDS011;62333;51.980;5.934;2023-04-24T12:52:38;2.45;;;0.57;;
38479;SDS011;62333;51.980;5.934;2023-04-24T12:55:04;1.90;;;0.60;;
38479;SDS011;62333;51.980;5.934;2023-04-24T12:57:33;0.70;;;0.17;;
38479;SDS011;62333;51.980;5.934;2023-04-24T12:59:59;2.17;;;0.32;;
38479;SDS011;62333;51.980;5.934;2023-04-24T13:02:27;1.27;;;0.20;;
38479;SDS011;62333;51.980;5.934;2023-04-24T13:04:54;1.33;;;0.20;;
38479;SDS011;62333;51.980;5.934;2023-04-24T13:07:20;1.25;;;0.20;;
38479;SDS011;62333;51.980;5.934;2023-04-24T13:09:47;1.33;;;0.35;;
38479;SDS011;62333;51.980;5.934;2023-04-24T13:12:13;1.77;;;0.20;;
38479;SDS011;62333;51.980;5.934;2023-04-24T13:14:39;1.98;;;0.40;;
38479;SDS011;62333;51.980;5.934;2023-04-24T13:17:05;4.00;;;0.93;;
38479;SDS011;62333;51.980;5.934;2023-04-24T13:19:39;3.17;;;0.52;;
38479;SDS011;62333;51.980;5.934;2023-04-24T13:22:06;1.85;;;0.50;;
38479;SDS011;62333;51.980;5.934;2023-04-24T13:24:32;1.50;;;0.30;;
38479;SDS011;62333;51.980;5.934;2023-04-24T13:26:58;0.70;;;0.20;;
38479;SDS011;62333;51.980;5.934;2023-04-24T13:29:25;3.50;;;0.63;;
38479;SDS011;62333;51.980;5.934;2023-04-24T13:31:51;2.60;;;0.22;;
38479;SDS011;62333;51.980;5.934;2023-04-24T13:34:19;3.28;;;0.30;;
38479;SDS011;62333;51.980;5.934;2023-04-24T13:36:44;1.40;;;0.43;;
38479;SDS011;62333;51.980;5.934;2023-04-24T13:39:10;1.65;;;0.32;;
38479;SDS011;62333;51.980;5.934;2023-04-24T13:41:36;6.40;;;1.17;;
38479;SDS011;62333;51.980;5.934;2023-04-24T13:44:02;3.65;;;0.88;;
38479;SDS011;62333;51.980;5.934;2023-04-24T13:46:29;3.60;;;0.90;;
38479;SDS011;62333;51.980;5.934;2023-04-24T13:48:55;2.70;;;0.60;;
38479;SDS011;62333;51.980;5.934;2023-04-24T13:51:22;4.85;;;1.75;;
38479;SDS011;62333;51.980;5.934;2023-04-24T13:53:48;4.13;;;0.93;;
38479;SDS011;62333;51.980;5.934;2023-04-24T13:56:14;5.55;;;1.60;;
38479;SDS011;62333;51.980;5.934;2023-04-24T13:58:40;4.20;;;1.30;;
38479;SDS011;62333;51.980;5.934;2023-04-24T14:01:06;4.75;;;0.98;;
38479;SDS011;62333;51.980;5.934;2023-04-24T14:03:33;7.32;;;0.98;;
38479;SDS011;62333;51.980;5.934;2023-04-24T14:05:59;6.00;;;0.50;;
38479;SDS011;62333;51.980;5.934;2023-04-24T14:08:24;5.60;;;0.90;;
38479;SDS011;62333;51.980;5.934;2023-04-24T14:10:50;2.70;;;0.40;;
38479;SDS011;62333;51.980;5.934;2023-04-24T14:13:16;2.08;;;0.40;;
38479;SDS011;62333;51.980;5.934;2023-04-24T14:15:42;3.75;;;1.05;;
38479;SDS011;62333;51.980;5.934;2023-04-24T14:18:08;5.93;;;0.80;;
38479;SDS011;62333;51.980;5.934;2023-04-24T14:20:33;4.38;;;1.30;;
38479;SDS011;62333;51.980;5.934;2023-04-24T14:22:59;7.25;;;0.93;;
38479;SDS011;62333;51.980;5.934;2023-04-24T14:25:25;8.23;;;1.23;;
38479;SDS011;62333;51.980;5.934;2023-04-24T14:27:51;4.90;;;1.63;;
38479;SDS011;62333;51.980;5.934;2023-04-24T14:30:17;2.95;;;0.95;;
38479;SDS011;62333;51.980;5.934;2023-04-24T14:32:43;5.25;;;1.60;;
38479;SDS011;62333;51.980;5.934;2023-04-24T14:35:09;9.00;;;2.00;;
38479;SDS011;62333;51.980;5.934;2023-04-24T14:37:35;3.15;;;1.10;;
38479;SDS011;62333;51.980;5.934;2023-04-24T14:40:02;3.97;;;1.00;;
38479;SDS011;62333;51.980;5.934;2023-04-24T14:42:30;5.63;;;0.77;;
38479;SDS011;62333;51.980;5.934;2023-04-24T14:44:55;2.38;;;0.80;;
38479;SDS011;62333;51.980;5.934;2023-04-24T14:47:21;3.90;;;1.13;;
38479;SDS011;62333;51.980;5.934;2023-04-24T14:49:50;4.70;;;1.25;;